createdAt,value
2022-10-12T18:44:21.159Z,78.79
2022-10-12T18:46:47.704Z,79.15
2022-10-12T18:49:14.597Z,79.64
2022-10-12T18:51:46.340Z,79.80
2022-10-12T18:54:14.014Z,79.55
2022-10-12T18:56:40.698Z,80.01
2022-10-12T18:59:07.860Z,79.55
2022-10-12T19:01:34.552Z,79.94
2022-10-12T19:04:02.333Z,80.26
2022-10-12T19:06:34.381Z,80.44
2022-10-12T19:09:01.943Z,80.43
2022-10-12T19:11:29.800Z,80.41
2022-10-12T19:14:00.137Z,80.54
2022-10-12T19:16:27.788Z,80.33
2022-10-12T19:19:03.042Z,80.69
2022-10-12T19:21:30.126Z,80.82
2022-10-12T19:23:57.135Z,80.73
2022-10-12T19:26:26.540Z,80.73
2022-10-12T19:28:57.563Z,81.21
2022-10-12T19:31:37.249Z,80.88
2022-10-12T19:34:09.974Z,80.93
2022-10-12T19:36:37.589Z,80.92
2022-10-12T19:39:07.949Z,81.28
2022-10-12T19:41:35.211Z,81.33
2022-10-12T19:44:02.307Z,81.22
2022-10-12T19:46:29.198Z,81.19
2022-10-12T19:48:58.064Z,80.90
2022-10-12T19:51:26.784Z,81.27
2022-10-12T19:53:57.861Z,81.01
2022-10-12T19:56:25.419Z,80.58
2022-10-12T19:58:55.376Z,80.61
2022-10-12T20:01:27.312Z,80.53
2022-10-12T20:03:54.316Z,80.53
2022-10-12T20:06:23.559Z,80.46
2022-10-12T20:08:51.813Z,80.57
2022-10-12T20:11:21.512Z,80.33
2022-10-12T20:13:50.664Z,80.32
2022-10-12T20:16:18.835Z,80.63
2022-10-12T20:18:45.752Z,80.73
2022-10-12T20:21:14.853Z,80.91
2022-10-12T20:23:42.891Z,80.86
2022-10-12T20:26:13.412Z,80.90
2022-10-12T20:28:39.987Z,80.47
2022-10-12T20:31:07.869Z,80.89
2022-10-12T20:33:36.536Z,80.58
2022-10-12T20:36:08.621Z,80.63
2022-10-12T20:38:35.210Z,80.88
2022-10-12T20:41:07.431Z,81.11
2022-10-12T20:43:34.387Z,81.32
2022-10-12T20:46:05.816Z,81.38
2022-10-12T20:48:32.520Z,80.99
2022-10-12T20:50:59.528Z,81.00
2022-10-12T20:53:26.506Z,81.51
2022-10-12T20:55:55.493Z,81.35
2022-10-12T20:58:25.639Z,81.62
2022-10-12T21:01:09.417Z,81.26
2022-10-12T21:03:36.260Z,81.26
2022-10-12T21:06:05.010Z,81.25
2022-10-12T21:08:31.693Z,81.41
2022-10-12T21:10:58.643Z,81.80
2022-10-12T21:13:25.249Z,81.53
2022-10-12T21:15:53.733Z,81.95
2022-10-12T21:18:21.212Z,81.58
2022-10-12T21:20:55.381Z,81.63
2022-10-12T21:23:22.582Z,81.75
2022-10-12T21:25:49.185Z,82.04
2022-10-12T21:28:15.842Z,81.70
2022-10-12T21:30:42.431Z,81.94
2022-10-12T21:33:08.909Z,82.04
2022-10-12T21:35:35.475Z,81.84
2022-10-12T21:38:02.692Z,82.25
2022-10-12T21:40:29.472Z,81.97
2022-10-12T21:42:56.104Z,81.96
2022-10-12T21:45:22.643Z,82.25
2022-10-12T21:47:49.440Z,82.23
2022-10-12T21:50:16.200Z,81.92
2022-10-12T21:52:42.718Z,82.25
2022-10-12T21:55:09.477Z,82.37
2022-10-12T21:57:35.936Z,82.11
2022-10-12T22:00:02.453Z,82.05
2022-10-12T22:02:28.940Z,82.34
2022-10-12T22:04:55.417Z,82.24
2022-10-12T22:07:21.932Z,82.20
2022-10-12T22:09:49.673Z,82.09
2022-10-12T22:12:16.368Z,82.05
2022-10-12T22:14:43.155Z,81.64
2022-10-12T22:17:09.626Z,81.74
2022-10-12T22:19:36.118Z,81.74
2022-10-12T22:22:02.626Z,82.04
2022-10-12T22:24:29.899Z,82.09
2022-10-12T22:26:56.495Z,81.74
2022-10-12T22:29:23.466Z,81.93
2022-10-12T22:31:50.012Z,81.84
2022-10-12T22:34:16.536Z,81.94
2022-10-12T22:36:44.194Z,81.97
2022-10-12T22:39:10.739Z,82.04
2022-10-12T22:41:37.272Z,82.39
2022-10-12T22:44:03.819Z,82.27
2022-10-12T22:46:30.332Z,82.11
2022-10-12T22:48:56.911Z,82.11
2022-10-12T22:51:31.378Z,82.18
2022-10-12T22:53:58.088Z,82.20
2022-10-12T22:56:24.956Z,82.28
2022-10-12T22:59:00.284Z,82.19
2022-10-12T23:01:28.191Z,81.67
2022-10-12T23:03:55.250Z,82.08
2022-10-12T23:06:22.238Z,82.21
2022-10-12T23:08:48.715Z,82.45
2022-10-12T23:11:18.700Z,82.17
2022-10-12T23:13:45.726Z,82.69
2022-10-12T23:16:21.658Z,82.81
2022-10-12T23:18:48.123Z,83.03
2022-10-12T23:21:17.405Z,82.64
2022-10-12T23:23:45.651Z,83.13
2022-10-12T23:26:15.207Z,82.99
2022-10-12T23:28:41.829Z,83.19
2022-10-12T23:31:10.356Z,83.16
2022-10-12T23:33:36.900Z,83.18
2022-10-12T23:36:07.254Z,83.32
2022-10-12T23:38:35.567Z,83.31
2022-10-12T23:41:02.512Z,83.75
2022-10-12T23:43:29.740Z,83.85
2022-10-12T23:45:56.723Z,83.81
2022-10-12T23:48:24.203Z,83.73
2022-10-12T23:50:54.198Z,84.08
2022-10-12T23:53:22.728Z,84.21
2022-10-12T23:55:50.584Z,83.96
2022-10-12T23:58:17.719Z,84.05
